Terminal Aerodrome Forecast
Issued by NWS

Current Version | Previous Version | Text Only | Print | Product List | Glossary On
Versions: 1 2 3 4 5 6 7 8 9 10 11 12
000
FTUS44 KTSA 291700
TAFBVO
TAF
KBVO 291736Z 2918/3018 08005KT P6SM FEW250
     FM300600 00000KT P6SM BKN110
     FM301200 00000KT P6SM VCSH BKN110
      TEMPO 3012/3016 4SM -RA OVC050
     FM301600 00000KT P6SM -RA BKN110
      TEMPO 3016/3018 4SM -RA OVC050=

USA.gov is the U.S. government's official web portal to all federal, state and local government web resources and services.